Time;durP1;ratioP1;P1;durP2;ratioP2;P2;SDS_P1;SDS_P2;PMS_P1;PMS_P2;Temp;Humidity;BMP_temperature;BMP_pressure;BME280_temperature;BME280_humidity;BME280_pressure;Samples;Min_cycle;Max_cycle;Signal;HPM_P1;HPM_P2
2023/10/07 03:30:36;;;;;;;3.90;3.10;;;7.60;99.90;;;;;;6114395;23;21198;-66
2023/10/07 03:33:08;;;;;;;3.17;2.53;;;7.60;99.90;;;;;;4970948;28;20231;-67
2023/10/07 03:35:59;;;;;;;9.57;2.67;;;7.60;99.90;;;;;;4974217;28;20228;-67
2023/10/07 03:38:26;;;;;;;3.50;2.53;;;7.60;99.90;;;;;;4973896;28;20592;-67
2023/10/07 03:40:54;;;;;;;4.32;2.50;;;7.60;99.90;;;;;;4974759;28;20274;-67
2023/10/07 03:43:27;;;;;;;5.70;3.28;;;7.60;99.90;;;;;;4974970;28;20235;-67
2023/10/07 03:45:57;;;;;;;3.60;2.50;;;7.50;99.90;;;;;;4974433;28;20743;-66
2023/10/07 03:48:24;;;;;;;4.20;3.35;;;7.50;99.90;;;;;;4969664;28;20697;-67
2023/10/07 03:51:04;;;;;;;4.13;2.90;;;7.50;99.90;;;;;;4970067;28;20274;-67
2023/10/07 03:53:32;;;;;;;4.25;2.95;;;7.50;99.90;;;;;;4968822;28;20598;-67
2023/10/07 03:56:02;;;;;;;5.85;3.05;;;7.50;99.90;;;;;;4974045;28;20262;-66
2023/10/07 03:58:32;;;;;;;4.72;2.95;;;7.50;99.90;;;;;;4970898;28;20211;-67
2023/10/07 04:01:04;;;;;;;4.95;3.42;;;7.40;99.90;;;;;;4971656;28;20331;-67
2023/10/07 04:03:35;;;;;;;3.42;2.50;;;7.40;99.90;;;;;;4971372;28;20204;-66
2023/10/07 04:06:01;;;;;;;5.63;3.60;;;7.40;99.90;;;;;;4969458;28;20593;-66
2023/10/07 04:08:28;;;;;;;4.45;3.08;;;7.40;99.90;;;;;;4971554;28;20223;-66
2023/10/07 04:10:55;;;;;;;3.70;2.50;;;7.40;99.90;;;;;;4971033;28;20238;-67
2023/10/07 04:13:24;;;;;;;4.55;2.67;;;7.30;99.90;;;;;;4971388;28;20231;-67
2023/10/07 04:15:52;;;;;;;4.40;2.85;;;7.30;99.90;;;;;;4970785;28;20203;-67
2023/10/07 04:18:33;;;;;;;6.10;3.05;;;7.30;99.90;;;;;;4974228;28;20212;-67
2023/10/07 04:21:00;;;;;;;4.90;2.60;;;7.30;99.90;;;;;;4971286;28;20350;-66
2023/10/07 04:23:27;;;;;;;3.42;2.40;;;7.30;99.90;;;;;;4971254;28;20214;-65
2023/10/07 04:26:05;;;;;;;6.22;3.50;;;7.30;99.90;;;;;;4970783;28;20212;-67
2023/10/07 04:28:32;;;;;;;5.75;2.70;;;7.30;99.90;;;;;;4970929;28;20207;-67
2023/10/07 04:30:59;;;;;;;4.80;3.03;;;7.30;99.90;;;;;;4973864;28;20242;-67
2023/10/07 04:33:32;;;;;;;4.80;3.13;;;7.30;99.90;;;;;;4971993;28;20593;-67
2023/10/07 04:36:04;;;;;;;3.80;2.60;;;7.30;99.90;;;;;;4973361;28;20208;-67
2023/10/07 04:38:52;;;;;;;4.90;2.83;;;7.20;99.90;;;;;;4969265;28;20243;-67
2023/10/07 04:41:30;;;;;;;8.13;3.85;;;7.20;99.90;;;;;;4970766;28;20231;-67
2023/10/07 04:44:08;;;;;;;5.60;3.00;;;7.20;99.90;;;;;;4971392;28;20233;-67
2023/10/07 04:46:43;;;;;;;6.80;2.85;;;7.20;99.90;;;;;;4971973;28;20490;-67
2023/10/07 04:49:14;;;;;;;6.70;2.90;;;7.20;99.90;;;;;;4969775;28;20207;-67
2023/10/07 04:51:55;;;;;;;2.88;2.58;;;7.20;99.90;;;;;;4971075;28;20704;-67
2023/10/07 04:54:20;;;;;;;3.42;3.10;;;7.20;99.90;;;;;;4973574;28;20620;-68
2023/10/07 04:56:53;;;;;;;4.33;2.77;;;7.10;99.90;;;;;;4973074;28;20210;-67
2023/10/07 04:59:21;;;;;;;3.78;2.70;;;7.10;99.90;;;;;;4973442;28;20911;-66
2023/10/07 05:01:56;;;;;;;5.15;2.70;;;7.10;99.90;;;;;;4970877;28;20330;-66
2023/10/07 05:04:24;;;;;;;4.65;3.30;;;7.10;99.90;;;;;;4973210;28;20676;-65
2023/10/07 05:06:53;;;;;;;5.40;2.90;;;7.10;99.90;;;;;;4972740;28;20231;-67
2023/10/07 05:09:21;;;;;;;5.00;2.95;;;7.10;99.90;;;;;;4973199;28;20215;-67
2023/10/07 05:11:49;;;;;;;3.95;2.60;;;7.10;99.90;;;;;;4973017;28;20716;-67
2023/10/07 05:14:17;;;;;;;3.05;2.75;;;7.00;99.90;;;;;;4973222;28;20230;-67
2023/10/07 05:16:46;;;;;;;6.13;2.92;;;7.10;99.90;;;;;;4972492;28;20207;-67
2023/10/07 05:19:19;;;;;;;6.10;2.90;;;7.10;99.90;;;;;;4973271;28;20207;-67
2023/10/07 05:21:58;;;;;;;4.00;2.55;;;7.00;99.90;;;;;;4972952;28;20230;-67
2023/10/07 05:24:28;;;;;;;3.65;2.85;;;7.00;99.90;;;;;;4968747;28;20203;-67
2023/10/07 05:26:55;;;;;;;4.97;2.75;;;7.00;99.90;;;;;;4972486;28;20258;-67
2023/10/07 05:29:22;;;;;;;2.67;2.17;;;7.00;99.90;;;;;;4972861;28;20277;-67
2023/10/07 05:31:49;;;;;;;4.80;2.90;;;7.00;99.90;;;;;;4972611;28;20310;-67
2023/10/07 05:34:16;;;;;;;6.95;3.42;;;6.90;99.90;;;;;;4970834;28;20224;-67
2023/10/07 05:36:43;;;;;;;4.75;2.97;;;6.90;99.90;;;;;;4970052;28;20208;-66
2023/10/07 05:39:14;;;;;;;4.40;2.95;;;6.90;99.90;;;;;;4972396;28;20215;-67
2023/10/07 05:41:41;;;;;;;5.15;2.88;;;6.90;99.90;;;;;;4972404;28;20231;-67
2023/10/07 05:44:09;;;;;;;5.20;2.50;;;6.90;99.90;;;;;;4972737;28;20230;-67
2023/10/07 05:46:36;;;;;;;5.75;2.90;;;6.90;99.90;;;;;;4972139;28;20225;-67
2023/10/07 05:49:04;;;;;;;9.20;2.72;;;6.80;99.90;;;;;;4966935;28;20242;-67
2023/10/07 05:51:31;;;;;;;5.95;2.90;;;6.90;99.90;;;;;;4972650;28;20247;-66
2023/10/07 05:53:59;;;;;;;7.13;3.30;;;6.80;99.90;;;;;;4970889;28;20231;-67
2023/10/07 05:56:27;;;;;;;4.03;2.70;;;6.90;99.90;;;;;;4972044;28;20230;-67
2023/10/07 05:58:55;;;;;;;6.55;3.20;;;6.80;99.90;;;;;;4972479;28;20282;-67
2023/10/07 06:01:22;;;;;;;5.80;3.08;;;6.80;99.90;;;;;;4972378;28;20259;-67
2023/10/07 06:03:51;;;;;;;5.70;3.55;;;6.80;99.90;;;;;;4972230;28;20207;-67
2023/10/07 06:06:20;;;;;;;4.20;2.75;;;6.80;99.90;;;;;;4972104;28;20274;-67
2023/10/07 06:08:47;;;;;;;3.72;2.80;;;6.90;99.90;;;;;;4970436;28;20258;-67
2023/10/07 06:11:15;;;;;;;4.68;3.72;;;6.90;99.90;;;;;;4972378;28;20235;-67
2023/10/07 06:13:44;;;;;;;3.63;2.55;;;6.90;99.90;;;;;;4971678;28;20224;-67
2023/10/07 06:16:13;;;;;;;5.18;2.75;;;6.90;99.90;;;;;;4971986;28;20212;-66
2023/10/07 06:18:40;;;;;;;3.25;2.83;;;7.00;99.90;;;;;;4971882;28;20219;-67
2023/10/07 06:21:19;;;;;;;5.38;3.22;;;7.00;99.90;;;;;;4972386;28;20236;-67
2023/10/07 06:23:47;;;;;;;4.20;2.80;;;7.00;99.90;;;;;;4970365;28;20210;-66
2023/10/07 06:26:15;;;;;;;4.32;2.78;;;7.00;99.90;;;;;;4971966;28;20208;-67
2023/10/07 06:28:48;;;;;;;3.85;2.80;;;7.10;99.90;;;;;;4970388;28;20211;-67
2023/10/07 06:31:22;;;;;;;5.40;3.25;;;7.10;99.90;;;;;;4972624;28;20322;-67
2023/10/07 06:33:59;;;;;;;3.33;2.83;;;7.20;99.90;;;;;;4971557;28;20227;-66
2023/10/07 06:36:26;;;;;;;7.03;3.45;;;7.20;99.90;;;;;;4971779;28;20215;-66
2023/10/07 06:38:58;;;;;;;4.28;2.97;;;7.30;99.90;;;;;;4971758;28;20585;-64
2023/10/07 06:41:27;;;;;;;4.53;3.00;;;7.30;99.90;;;;;;4972140;28;20223;-63
2023/10/07 06:43:59;;;;;;;4.03;2.88;;;7.40;99.90;;;;;;4971932;28;20212;-67
2023/10/07 06:46:29;;;;;;;3.92;3.15;;;7.50;99.90;;;;;;4971731;28;20584;-67
2023/10/07 06:48:56;;;;;;;3.55;2.72;;;7.60;99.90;;;;;;4971688;28;20222;-67
2023/10/07 06:51:28;;;;;;;5.22;3.25;;;7.70;99.90;;;;;;4972237;28;20711;-67
2023/10/07 06:53:55;;;;;;;5.38;3.22;;;7.90;99.90;;;;;;4975519;28;20231;-67
2023/10/07 06:56:22;;;;;;;4.22;2.78;;;8.00;99.90;;;;;;4974374;28;20212;-67
2023/10/07 06:58:53;;;;;;;4.78;3.30;;;8.20;99.90;;;;;;4975200;28;20217;-67
2023/10/07 07:01:35;;;;;;;7.20;3.50;;;8.50;99.90;;;;;;4974980;28;20283;-67
2023/10/07 07:04:09;;;;;;;5.18;2.90;;;8.70;99.90;;;;;;4976081;28;20215;-67
2023/10/07 07:06:42;;;;;;;4.40;3.10;;;9.10;99.90;;;;;;4975086;28;20211;-64
2023/10/07 07:09:41;;;;;;;4.47;2.83;;;9.40;99.90;;;;;;4975628;28;20297;-65
2023/10/07 07:11:58;;;;;;;5.05;3.10;;;9.80;99.90;;;;;;4975176;28;20238;-65
2023/10/07 07:14:28;;;;;;;4.07;2.50;;;10.30;99.90;;;;;;4975671;28;20323;-64
2023/10/07 07:16:56;;;;;;;3.30;2.90;;;10.70;99.90;;;;;;4974763;28;20217;-64
2023/10/07 07:19:23;;;;;;;3.60;2.97;;;11.00;99.90;;;;;;4975549;28;20292;-65
2023/10/07 07:21:49;;;;;;;4.55;3.75;;;11.20;99.90;;;;;;4975022;28;20755;-65
2023/10/07 07:24:21;;;;;;;3.03;2.60;;;11.30;99.90;;;;;;4975850;28;20199;-65
2023/10/07 07:26:51;;;;;;;6.28;3.10;;;11.40;99.90;;;;;;4974499;28;20564;-64
2023/10/07 07:29:19;;;;;;;2.95;2.30;;;11.50;99.90;;;;;;4975046;28;20199;-65
2023/10/07 07:31:46;;;;;;;5.10;2.83;;;11.60;99.90;;;;;;4974538;28;20232;-64
2023/10/07 07:34:23;;;;;;;2.95;2.47;;;11.60;99.90;;;;;;4975406;28;20222;-67
2023/10/07 07:36:56;;;;;;;3.55;2.70;;;11.80;99.90;;;;;;4974219;28;20203;-65
2023/10/07 07:39:23;;;;;;;6.78;3.47;;;12.10;99.90;;;;;;4975243;28;20215;-64
2023/10/07 07:41:56;;;;;;;3.10;2.80;;;12.50;99.90;;;;;;4974783;28;20223;-65
2023/10/07 07:44:32;;;;;;;5.68;2.47;;;13.00;99.90;;;;;;4974314;28;20200;-64
2023/10/07 07:47:00;;;;;;;3.38;2.60;;;13.40;99.90;;;;;;4974395;28;20656;-65
2023/10/07 07:49:31;;;;;;;2.93;2.53;;;13.80;99.90;;;;;;4975484;28;20227;-65
2023/10/07 07:51:59;;;;;;;6.53;2.33;;;14.10;99.90;;;;;;4974573;28;20519;-65
2023/10/07 07:54:26;;;;;;;9.73;3.40;;;14.50;99.90;;;;;;4974834;28;20568;-67
2023/10/07 07:56:54;;;;;;;4.63;2.70;;;14.60;99.90;;;;;;4973544;28;20467;-67
2023/10/07 07:59:21;;;;;;;4.33;2.40;;;14.70;99.90;;;;;;4974749;28;20467;-65
2023/10/07 08:01:53;;;;;;;3.37;1.97;;;14.90;99.90;;;;;;4973649;28;20484;-64
2023/10/07 08:04:37;;;;;;;4.37;2.67;;;15.10;99.90;;;;;;4974998;28;20547;-64
2023/10/07 08:07:17;;;;;;;3.90;3.37;;;15.30;99.90;;;;;;4966789;28;20469;-64
2023/10/07 08:09:45;;;;;;;4.37;2.67;;;15.50;99.90;;;;;;4974190;28;20456;-65
2023/10/07 08:12:18;;;;;;;2.73;2.43;;;15.80;99.90;;;;;;4974460;28;20485;-64
2023/10/07 08:14:46;;;;;;;3.33;2.43;;;16.00;99.90;;;;;;4973909;28;20499;-64
2023/10/07 08:17:19;;;;;;;5.40;2.80;;;16.30;99.90;;;;;;4974556;28;20979;-65
2023/10/07 08:19:49;;;;;;;5.53;2.63;;;16.60;99.90;;;;;;4973887;28;20472;-66
2023/10/07 08:22:20;;;;;;;4.33;2.60;;;16.60;99.90;;;;;;4974292;28;20486;-66
2023/10/07 08:24:49;;;;;;;3.47;2.57;;;16.50;99.90;;;;;;4972765;28;20860;-66
2023/10/07 08:30:05;;;;;;;3.37;2.53;;;16.40;99.90;;;;;;4965131;28;20481;-66
2023/10/07 08:32:35;;;;;;;4.43;3.00;;;16.40;99.90;;;;;;4974278;28;20497;-66
2023/10/07 08:35:14;;;;;;;3.23;1.93;;;16.60;99.90;;;;;;4965688;28;20492;-66
2023/10/07 08:37:45;;;;;;;3.50;2.70;;;17.00;99.90;;;;;;4973580;28;20831;-66
2023/10/07 08:40:15;;;;;;;3.97;2.43;;;17.40;99.90;;;;;;4966282;28;20470;-67
2023/10/07 08:42:45;;;;;;;4.13;2.33;;;17.80;99.90;;;;;;4973165;28;20474;-67
2023/10/07 08:45:16;;;;;;;3.10;2.30;;;18.10;99.90;;;;;;4962579;28;20460;-67
2023/10/07 08:47:49;;;;;;;3.97;2.50;;;18.10;99.90;;;;;;4970930;28;20459;-66
2023/10/07 08:50:19;;;;;;;4.30;2.53;;;18.00;99.90;;;;;;4973800;28;20474;-67
2023/10/07 08:52:52;;;;;;;3.60;2.40;;;17.80;99.90;;;;;;4965762;28;20472;-66
2023/10/07 08:55:20;;;;;;;3.03;2.23;;;17.60;99.90;;;;;;4973414;28;21083;-67
2023/10/07 08:57:49;;;;;;;5.33;2.90;;;17.50;99.90;;;;;;4973140;28;20468;-67
2023/10/07 09:00:21;;;;;;;4.43;2.50;;;17.50;99.90;;;;;;4973725;28;20459;-67
2023/10/07 09:02:48;;;;;;;4.70;2.60;;;17.50;99.90;;;;;;4972568;28;20463;-67
2023/10/07 09:05:20;;;;;;;3.60;2.60;;;17.50;99.90;;;;;;4967215;28;20460;-67
2023/10/07 09:07:49;;;;;;;4.47;2.97;;;17.70;99.90;;;;;;4965965;28;20987;-67
2023/10/07 09:10:17;;;;;;;3.83;2.57;;;17.80;99.90;;;;;;4973616;28;20500;-67
2023/10/07 09:12:48;;;;;;;4.30;2.30;;;17.80;99.90;;;;;;4973051;28;20467;-67
2023/10/07 09:15:25;;;;;;;2.80;2.00;;;17.80;99.90;;;;;;4972488;28;20487;-67
2023/10/07 09:17:52;;;;;;;5.53;2.80;;;17.80;99.90;;;;;;4972783;28;20473;-67
2023/10/07 09:20:29;;;;;;;3.33;2.47;;;17.80;99.90;;;;;;4973190;28;20466;-67
2023/10/07 09:23:01;;;;;;;3.60;2.30;;;17.80;99.90;;;;;;4973014;28;20918;-66
2023/10/07 09:25:31;;;;;;;3.10;2.20;;;17.80;99.90;;;;;;4965625;28;20967;-66
2023/10/07 09:27:59;;;;;;;4.27;2.50;;;17.70;99.90;;;;;;4972926;28;20818;-67
2023/10/07 09:30:38;;;;;;;3.20;2.53;;;17.60;99.90;;;;;;4973102;28;20470;-67
2023/10/07 09:33:12;;;;;;;5.80;2.80;;;17.60;99.90;;;;;;4972238;28;20463;-66
2023/10/07 09:35:42;;;;;;;4.90;2.47;;;17.40;99.90;;;;;;4972358;28;20486;-66
2023/10/07 09:38:23;;;;;;;3.83;2.13;;;17.30;99.90;;;;;;4965872;28;20841;-67
2023/10/07 09:41:11;;;;;;;3.10;2.47;;;17.30;99.90;;;;;;4971752;28;20493;-66
2023/10/07 09:43:38;;;;;;;4.50;2.83;;;17.20;99.90;;;;;;4969580;28;20455;-66
2023/10/07 09:46:07;;;;;;;4.10;2.50;;;17.10;99.90;;;;;;4972139;28;20467;-66
2023/10/07 09:48:41;;;;;;;4.90;2.87;;;17.00;99.90;;;;;;4972735;28;20849;-67
2023/10/07 09:51:22;;;;;;;4.80;2.47;;;16.90;99.90;;;;;;4972470;28;21077;-67
2023/10/07 09:54:16;;;;;;;4.40;2.30;;;16.90;99.90;;;;;;4973458;28;20466;-67
2023/10/07 09:56:58;;;;;;;2.83;2.43;;;16.80;99.90;;;;;;4972459;28;20463;-66
2023/10/07 09:59:35;;;;;;;3.10;2.13;;;16.80;99.90;;;;;;4991703;23;20529;-65
2023/10/07 10:02:31;;;;;;;3.30;2.40;;;16.80;99.90;;;;;;4981861;28;20486;-65
2023/10/07 10:05:26;;;;;;;3.13;2.30;;;16.80;99.90;;;;;;4987783;28;20832;-66
2023/10/07 10:08:28;;;;;;;3.70;2.80;;;16.80;99.90;;;;;;4987530;28;20462;-66
2023/10/07 10:10:59;;;;;;;3.17;2.50;;;16.80;99.90;;;;;;4987312;28;20482;-66
2023/10/07 10:13:51;;;;;;;2.87;2.27;;;16.90;99.90;;;;;;4988838;28;20473;-66
2023/10/07 10:16:21;;;;;;;3.80;2.73;;;16.90;99.90;;;;;;4980474;28;20474;-66
2023/10/07 10:18:53;;;;;;;3.70;2.50;;;17.00;99.90;;;;;;4991658;28;20855;-66
2023/10/07 10:21:22;;;;;;;4.47;2.30;;;17.00;99.90;;;;;;4991575;28;20567;-66
2023/10/07 10:23:51;;;;;;;4.53;2.37;;;17.00;99.90;;;;;;4991460;28;20929;-66
2023/10/07 10:26:26;;;;;;;4.53;2.80;;;17.00;99.90;;;;;;4991137;28;21026;-66
2023/10/07 10:29:03;;;;;;;4.20;2.37;;;16.90;99.90;;;;;;4991586;28;20856;-66
2023/10/07 10:31:33;;;;;;;4.13;1.97;;;16.90;99.90;;;;;;4991554;28;20489;-66
2023/10/07 10:34:04;;;;;;;3.83;2.73;;;17.00;99.90;;;;;;4991381;28;20469;-65
2023/10/07 10:36:35;;;;;;;4.10;2.33;;;17.10;99.90;;;;;;4991536;28;20565;-65
2023/10/07 10:39:05;;;;;;;3.07;2.20;;;17.20;99.90;;;;;;4989993;28;20541;-66
2023/10/07 10:41:33;;;;;;;3.13;2.13;;;17.40;99.90;;;;;;4991732;28;20802;-66
2023/10/07 10:44:06;;;;;;;4.00;2.80;;;17.60;99.90;;;;;;4991341;28;20458;-66
2023/10/07 10:46:44;;;;;;;3.03;2.60;;;17.70;99.90;;;;;;4991347;28;20473;-66
2023/10/07 10:49:12;;;;;;;4.27;2.67;;;17.90;99.90;;;;;;4990735;28;20469;-66
2023/10/07 10:51:45;;;;;;;3.20;2.20;;;18.00;99.90;;;;;;4991312;28;20548;-66
2023/10/07 10:54:15;;;;;;;3.73;2.57;;;18.10;99.90;;;;;;4991408;28;20459;-66
2023/10/07 10:56:55;;;;;;;6.53;2.87;;;18.10;99.90;;;;;;4991158;28;20493;-65
2023/10/07 10:59:23;;;;;;;3.50;2.20;;;18.10;99.90;;;;;;4985887;28;20466;-66
2023/10/07 11:01:50;;;;;;;3.53;2.30;;;18.20;99.90;;;;;;4991266;28;20544;-66
2023/10/07 11:04:20;;;;;;;2.10;1.80;;;18.20;99.90;;;;;;4985288;28;20497;-66
2023/10/07 11:06:50;;;;;;;4.17;2.60;;;18.40;99.90;;;;;;4991110;28;20493;-66
2023/10/07 11:09:26;;;;;;;4.83;2.70;;;18.70;99.90;;;;;;4991318;28;20466;-66
2023/10/07 11:11:57;;;;;;;3.27;2.27;;;18.60;99.90;;;;;;4991040;28;21005;-66
2023/10/07 11:14:25;;;;;;;3.30;2.00;;;18.70;99.90;;;;;;4991140;28;21013;-66
2023/10/07 11:16:57;;;;;;;3.90;2.90;;;18.60;99.90;;;;;;4991060;28;20814;-66
2023/10/07 11:19:25;;;;;;;4.63;2.47;;;18.50;99.90;;;;;;4991155;28;20489;-66
2023/10/07 11:21:54;;;;;;;3.60;2.30;;;18.40;99.90;;;;;;4991097;28;20522;-66
2023/10/07 11:24:25;;;;;;;2.70;2.27;;;18.40;99.90;;;;;;4990996;28;20548;-66
2023/10/07 11:26:56;;;;;;;4.43;2.13;;;18.30;99.90;;;;;;4990825;28;20462;-66
2023/10/07 11:29:29;;;;;;;2.60;2.00;;;18.20;99.90;;;;;;4985913;28;20463;-66
2023/10/07 11:32:00;;;;;;;4.00;2.83;;;18.20;99.90;;;;;;4990743;28;20487;-65
2023/10/07 11:34:36;;;;;;;3.27;2.13;;;18.20;99.90;;;;;;4990804;28;20990;-66
2023/10/07 11:37:11;;;;;;;3.67;2.53;;;18.30;99.90;;;;;;4989256;28;20536;-65
2023/10/07 11:39:45;;;;;;;2.77;2.20;;;18.30;99.90;;;;;;4994710;28;20522;-65
2023/10/07 11:42:13;;;;;;;4.17;2.60;;;18.30;99.90;;;;;;4994313;28;20507;-65
2023/10/07 11:44:46;;;;;;;4.90;2.50;;;18.30;99.90;;;;;;4994425;28;20462;-65
2023/10/07 11:47:15;;;;;;;4.00;2.57;;;18.20;99.90;;;;;;4994132;28;20462;-66
2023/10/07 11:49:41;;;;;;;2.73;2.10;;;18.20;99.90;;;;;;4994631;28;20468;-65
2023/10/07 11:52:08;;;;;;;2.73;2.13;;;18.10;99.90;;;;;;4994178;28;20479;-66
2023/10/07 11:54:37;;;;;;;2.87;2.33;;;18.10;99.90;;;;;;4994683;28;20478;-66
2023/10/07 11:57:05;;;;;;;3.80;2.47;;;18.10;99.90;;;;;;4991566;28;20490;-66
2023/10/07 11:59:33;;;;;;;3.10;2.40;;;18.10;99.90;;;;;;4994123;28;20466;-66
2023/10/07 12:02:01;;;;;;;3.97;2.47;;;18.10;99.90;;;;;;4993965;28;20488;-65
2023/10/07 12:04:28;;;;;;;4.97;2.87;;;18.10;99.90;;;;;;4994126;28;20481;-65
2023/10/07 12:06:56;;;;;;;5.53;2.93;;;18.10;99.90;;;;;;4993899;28;20462;-66
2023/10/07 12:09:23;;;;;;;5.43;2.53;;;18.10;99.90;;;;;;4994030;28;20493;-66
2023/10/07 12:11:53;;;;;;;3.93;2.33;;;18.20;99.90;;;;;;4993962;28;20489;-66
2023/10/07 12:14:20;;;;;;;4.50;2.50;;;18.20;99.90;;;;;;4993781;28;20473;-66
2023/10/07 12:16:47;;;;;;;3.97;2.60;;;18.30;99.90;;;;;;4993537;28;21032;-65
2023/10/07 12:19:17;;;;;;;2.80;2.10;;;18.20;99.90;;;;;;4993893;28;20799;-66
2023/10/07 12:21:47;;;;;;;4.00;2.60;;;18.20;99.90;;;;;;4994150;28;20834;-66
2023/10/07 12:24:14;;;;;;;3.63;2.37;;;18.20;99.90;;;;;;4993633;28;20463;-66
2023/10/07 12:26:41;;;;;;;5.73;2.87;;;18.10;99.90;;;;;;4993748;28;20975;-66
2023/10/07 12:29:08;;;;;;;4.00;2.43;;;18.10;99.90;;;;;;4993623;28;20464;-66
2023/10/07 12:31:35;;;;;;;2.90;2.33;;;18.20;99.90;;;;;;4993433;28;20483;-66
2023/10/07 12:34:02;;;;;;;3.00;2.47;;;18.20;99.90;;;;;;4990517;28;20461;-66
2023/10/07 12:36:30;;;;;;;3.40;2.33;;;18.20;99.90;;;;;;4993370;28;20482;-66
2023/10/07 12:38:57;;;;;;;3.50;2.33;;;18.20;99.90;;;;;;4993635;28;20817;-66
2023/10/07 12:41:24;;;;;;;3.20;2.40;;;18.20;99.90;;;;;;4993287;28;21065;-66
2023/10/07 12:43:50;;;;;;;4.10;2.80;;;18.20;99.90;;;;;;4993339;28;20479;-65
2023/10/07 12:46:17;;;;;;;2.50;2.10;;;18.20;99.90;;;;;;4992862;28;20484;-66
2023/10/07 12:48:46;;;;;;;3.63;2.70;;;18.20;99.90;;;;;;4993224;28;20911;-65
2023/10/07 12:51:13;;;;;;;4.57;2.50;;;18.30;99.90;;;;;;4993105;28;20869;-66
2023/10/07 12:53:43;;;;;;;3.23;2.43;;;18.30;99.90;;;;;;4993117;28;20474;-66
2023/10/07 12:56:13;;;;;;;3.60;2.50;;;18.40;99.90;;;;;;4992763;28;20491;-66
2023/10/07 12:58:42;;;;;;;5.67;3.33;;;18.40;99.90;;;;;;4993202;28;20463;-66
2023/10/07 13:01:12;;;;;;;3.90;2.20;;;18.50;99.90;;;;;;4992803;28;20979;-66
2023/10/07 13:03:39;;;;;;;2.67;2.47;;;18.60;99.90;;;;;;4993161;28;20988;-66
2023/10/07 13:06:08;;;;;;;3.27;2.60;;;18.60;99.90;;;;;;4992698;28;20465;-66
2023/10/07 13:08:38;;;;;;;3.30;2.53;;;18.60;99.90;;;;;;4993171;28;20464;-66
2023/10/07 13:11:11;;;;;;;4.90;2.80;;;18.60;99.90;;;;;;4989680;28;20496;-65
2023/10/07 13:13:39;;;;;;;2.27;1.70;;;18.60;99.90;;;;;;4992796;28;20468;-66
2023/10/07 13:16:10;;;;;;;3.10;2.53;;;18.60;99.90;;;;;;4992689;28;20484;-66
2023/10/07 13:18:38;;;;;;;4.07;2.73;;;18.60;99.90;;;;;;4992776;28;20467;-66
2023/10/07 13:21:07;;;;;;;3.33;2.20;;;18.60;99.90;;;;;;4992524;28;20485;-65
2023/10/07 13:23:38;;;;;;;3.10;2.33;;;18.60;99.90;;;;;;4992696;28;20499;-66
2023/10/07 13:26:08;;;;;;;5.73;2.47;;;18.70;99.90;;;;;;4989101;28;20533;-65
2023/10/07 13:28:37;;;;;;;2.77;2.20;;;19.00;99.90;;;;;;4992756;28;20463;-66
2023/10/07 13:31:06;;;;;;;4.07;2.60;;;19.20;99.90;;;;;;4989021;28;20475;-66
2023/10/07 13:33:34;;;;;;;7.87;2.33;;;19.30;99.90;;;;;;4988630;28;20462;-66
2023/10/07 13:36:02;;;;;;;4.10;2.30;;;19.30;99.90;;;;;;4992240;28;20498;-66
2023/10/07 13:38:29;;;;;;;4.80;2.80;;;19.40;99.90;;;;;;4992365;28;20476;-66
2023/10/07 13:40:56;;;;;;;4.10;3.17;;;19.50;99.90;;;;;;4992362;28;20489;-66
2023/10/07 13:43:24;;;;;;;2.90;2.07;;;19.50;99.90;;;;;;4992164;28;20467;-66
2023/10/07 13:45:52;;;;;;;3.87;2.33;;;19.60;99.90;;;;;;4992232;28;20451;-66
2023/10/07 13:48:19;;;;;;;4.77;2.40;;;19.60;99.90;;;;;;4992443;28;20503;-66
2023/10/07 13:50:46;;;;;;;4.30;2.70;;;19.70;99.90;;;;;;4992124;28;20835;-66
2023/10/07 13:53:14;;;;;;;2.47;2.17;;;19.70;99.90;;;;;;4992105;28;21044;-66
2023/10/07 13:55:55;;;;;;;3.53;2.90;;;19.70;99.90;;;;;;4991934;28;20499;-66
2023/10/07 13:58:23;;;;;;;4.20;2.30;;;19.70;99.90;;;;;;4991868;28;20464;-66
2023/10/07 14:00:53;;;;;;;4.67;2.87;;;19.60;99.90;;;;;;4991344;28;20489;-66
2023/10/07 14:03:22;;;;;;;3.07;2.57;;;19.60;99.90;;;;;;4991766;28;20555;-66
2023/10/07 14:05:51;;;;;;;2.80;2.30;;;19.60;99.90;;;;;;4991727;28;20472;-66
2023/10/07 14:08:19;;;;;;;2.50;2.10;;;19.60;99.90;;;;;;4991699;28;20472;-66
2023/10/07 14:10:47;;;;;;;4.13;2.93;;;19.60;99.90;;;;;;4991853;28;20489;-66
2023/10/07 14:13:15;;;;;;;2.40;2.17;;;19.60;99.90;;;;;;4991654;28;20473;-66
2023/10/07 14:15:47;;;;;;;2.50;2.30;;;19.60;99.90;;;;;;4991574;28;20494;-66
2023/10/07 14:18:14;;;;;;;6.03;2.57;;;19.70;99.90;;;;;;4991609;28;21056;-66
2023/10/07 14:20:41;;;;;;;2.10;1.83;;;19.70;99.90;;;;;;4991745;28;20483;-66
2023/10/07 14:23:08;;;;;;;3.37;2.23;;;19.70;99.90;;;;;;4991805;28;20522;-66
2023/10/07 14:25:37;;;;;;;2.77;2.17;;;19.70;99.90;;;;;;4991338;28;20469;-66
2023/10/07 14:28:05;;;;;;;3.27;2.20;;;19.80;99.90;;;;;;4987477;28;20464;-66
2023/10/07 14:30:33;;;;;;;3.47;2.50;;;19.80;99.90;;;;;;4991324;28;20981;-66
2023/10/07 14:33:01;;;;;;;3.37;1.90;;;19.90;99.90;;;;;;4991503;28;21005;-66
2023/10/07 14:35:27;;;;;;;6.67;2.83;;;19.90;99.90;;;;;;4991161;28;20472;-66
2023/10/07 14:37:56;;;;;;;4.63;2.20;;;19.90;99.90;;;;;;4991444;28;20492;-66
2023/10/07 14:40:23;;;;;;;3.20;2.10;;;19.90;99.90;;;;;;4991213;28;20467;-66
2023/10/07 14:42:50;;;;;;;3.10;2.40;;;19.80;99.90;;;;;;4991518;28;20523;-66
2023/10/07 14:45:17;;;;;;;4.43;2.00;;;19.80;99.90;;;;;;4991414;28;20470;-66
2023/10/07 14:47:46;;;;;;;2.60;2.30;;;19.70;99.90;;;;;;4991316;28;20470;-66
2023/10/07 14:50:14;;;;;;;4.83;2.63;;;19.70;99.90;;;;;;4991433;28;20495;-66
2023/10/07 14:52:42;;;;;;;4.77;2.20;;;19.70;99.90;;;;;;4988470;28;20472;-66
2023/10/07 14:55:10;;;;;;;2.97;2.07;;;19.80;99.90;;;;;;4991238;28;20567;-66
2023/10/07 14:57:36;;;;;;;5.30;2.50;;;19.90;99.90;;;;;;4991113;28;20517;-66
2023/10/07 15:00:10;;;;;;;7.40;2.37;;;20.10;99.90;;;;;;4986588;28;20838;-66
2023/10/07 15:02:37;;;;;;;2.93;2.37;;;20.20;99.90;;;;;;4991339;28;20882;-65
2023/10/07 15:05:05;;;;;;;4.20;2.43;;;20.40;99.90;;;;;;4991180;28;20458;-66
2023/10/07 15:07:33;;;;;;;3.57;2.33;;;20.60;99.90;;;;;;4991088;28;20829;-66
2023/10/07 15:10:00;;;;;;;4.90;2.30;;;20.60;99.90;;;;;;4991289;28;20844;-66
2023/10/07 15:12:27;;;;;;;2.40;1.80;;;20.60;99.90;;;;;;4992502;28;20489;-66
2023/10/07 15:14:55;;;;;;;4.33;2.83;;;20.50;99.90;;;;;;4995121;28;20492;-66
2023/10/07 15:17:22;;;;;;;2.80;2.10;;;20.40;99.90;;;;;;4994626;28;20492;-65
2023/10/07 15:19:49;;;;;;;3.30;2.30;;;20.30;99.90;;;;;;4994943;28;20465;-66
2023/10/07 15:22:18;;;;;;;3.63;2.40;;;20.20;99.90;;;;;;4994795;28;20540;-65
2023/10/07 15:24:46;;;;;;;3.77;2.37;;;20.10;99.90;;;;;;4994803;28;20962;-66
2023/10/07 15:27:12;;;;;;;9.80;2.40;;;19.90;99.90;;;;;;4994734;28;20826;-66
2023/10/07 15:29:39;;;;;;;3.77;2.80;;;19.80;99.90;;;;;;4994700;28;20479;-65
2023/10/07 15:32:06;;;;;;;3.13;2.30;;;19.70;99.90;;;;;;4994818;28;20478;-66
2023/10/07 15:34:33;;;;;;;3.63;2.33;;;19.60;99.90;;;;;;4994501;28;21075;-66
2023/10/07 15:37:00;;;;;;;4.10;2.40;;;19.40;99.90;;;;;;4994521;28;21036;-66
2023/10/07 15:39:28;;;;;;;6.20;2.60;;;19.30;99.90;;;;;;4994521;28;20557;-65
2023/10/07 15:41:56;;;;;;;2.80;2.30;;;19.20;99.90;;;;;;4994485;28;20567;-66
2023/10/07 15:44:24;;;;;;;5.23;2.77;;;19.10;99.90;;;;;;4994197;28;20472;-65
2023/10/07 15:46:50;;;;;;;3.27;2.93;;;19.00;99.90;;;;;;4994494;28;20468;-66
2023/10/07 15:49:17;;;;;;;4.50;2.80;;;18.90;99.90;;;;;;4994626;28;20492;-65
2023/10/07 15:51:44;;;;;;;4.20;2.83;;;18.80;99.90;;;;;;4991884;28;21020;-65
2023/10/07 15:54:11;;;;;;;3.67;2.20;;;18.70;99.90;;;;;;4994299;28;20465;-65
2023/10/07 15:56:39;;;;;;;3.50;2.40;;;18.60;99.90;;;;;;4993674;28;20500;-65
2023/10/07 16:01:38;;;;;;;3.00;2.40;;;18.40;99.90;;;;;;5049735;23;20529;-65
2023/10/07 16:04:08;;;;;;;3.37;2.20;;;18.20;99.90;;;;;;4990616;28;20490;-65
2023/10/07 16:06:34;;;;;;;4.63;2.97;;;18.10;99.90;;;;;;4995855;28;20525;-65
2023/10/07 16:09:02;;;;;;;5.10;2.93;;;17.90;99.90;;;;;;4996720;28;20462;-65
2023/10/07 16:11:28;;;;;;;4.23;2.70;;;17.80;99.90;;;;;;4997598;28;20916;-65
2023/10/07 16:13:57;;;;;;;2.50;2.30;;;17.70;99.90;;;;;;4997366;28;20470;-65
2023/10/07 16:16:24;;;;;;;5.20;2.50;;;17.60;99.90;;;;;;4995619;28;20561;-65
2023/10/07 16:18:52;;;;;;;3.00;2.10;;;17.40;99.90;;;;;;4995900;28;20462;-66
2023/10/07 16:21:19;;;;;;;4.57;3.03;;;17.30;99.90;;;;;;4995600;28;20513;-64
2023/10/07 16:23:47;;;;;;;4.37;2.50;;;17.20;99.90;;;;;;4994951;28;20979;-65
2023/10/07 16:26:14;;;;;;;4.23;2.37;;;17.10;99.90;;;;;;4995365;28;20561;-66
2023/10/07 16:28:43;;;;;;;3.40;2.00;;;17.00;99.90;;;;;;4997001;28;20951;-65
2023/10/07 16:31:10;;;;;;;2.60;2.03;;;16.90;99.90;;;;;;4995590;28;20489;-66
2023/10/07 16:33:36;;;;;;;2.67;2.13;;;16.80;99.90;;;;;;4994965;28;20465;-65
2023/10/07 16:36:06;;;;;;;5.53;2.50;;;16.60;99.90;;;;;;4989303;28;20927;-65
2023/10/07 16:38:34;;;;;;;4.80;2.87;;;16.50;99.90;;;;;;4995203;28;20482;-66
2023/10/07 16:41:01;;;;;;;3.13;2.30;;;16.50;99.90;;;;;;4993337;28;20485;-65